Victor, NY (14564)

11:04 PM EST on December 04, 2016 (GMT -0500)
KD2OM | | Change Station
Active Advisory: Special Statement

Elev 640 ft 42.97 °N, 77.43 °W | Updated 4 minutes ago

Overcast
Overcast
34.7 °F
Feels Like 35 °F
N
0.5
Wind Variable Wind from NE
Gusts 3.5 mph

Today
High -- | Low -- °F
--% Chance of Precip.
Yesterday
High -- | Low -- °F
Precip. -- in
Pressure 29.96 in
Visibility 10.0 miles
Clouds Mostly Cloudy 5000 ft
Overcast 8500 ft
Windchill 35 °F
Dew Point 24 °F
Humidity 64%
Rainfall 0.02 in
Snow Depth Not available.
7:24 AM 4:35 PM
Waxing Crescent, 28% visible
METAR KROC 050354Z 09009KT 10SM BKN050 OVC085 02/M03 A2994 RMK AO2 SLP146 T00221028
Pressure 29.96 in
Visibility 10.0 miles
Clouds Mostly Cloudy 5000 ft
Overcast 8500 ft
Windchill 35 °F
Dew Point 24 °F
Humidity 64%
Rainfall 0.02 in
Snow Depth Not available.
7:24 AM 4:35 PM
Waxing Crescent, 28% visible
METAR KROC 050354Z 09009KT 10SM BKN050 OVC085 02/M03 A2994 RMK AO2 SLP146 T00221028

10-Day Weather Forecast

Almanac

Astronomy

Dec. 04, 2016 Rise Set
Actual Time
Civil Twilight
Nautical Twilight
Astronomical Twilight
Moon
Length of Visible Light
Length of Day
Tomorrow will be .
, % of the Moon is Illuminated

Today's Extremes

State Highs State Lows

Community

WunderPhotos

Upload Photos

1,955,757 photos uploaded!

WunderBlog® & News

Nearby

Air Quality

  Air Quality AQ Index Pollutant
Not available.

Snow Depth

Station Depth Elevation

Earthquake Activity

City Distance Mag. Time & Date
Minimum magnitude displayed is 2.5.

Coastal Water Temperatures

Place Temperature

Stations

Nearby Weather Stations

Station Location Temp. Windchill Dew Point Humidity Wind Precip. Elev Updated Type
                   

Watches & Warnings

Special Statement
Issued: 7:12 PM EST Dec. 4, 2016 – National Weather Service

... An inch or two of snow expected late tonight...

An area of snow will quickly move across western New York late
tonight. The bulk of the snow will fall between 11 PM and
5am... resulting in an inch or two of accumulation. Untreated
roadways will become slick late tonight and into Monday morning.
Motorists should exercise caution and plan a little extra time
for the Monday morning commute.


Apffel

712 PM EST sun Dec 4 2016

... An inch or two of snow expected late tonight...

An area of snow will quickly move across western New York late
tonight. The bulk of the snow will fall between 11 PM and
5am... resulting in an inch or two of accumulation. Untreated
roadways will become slick late tonight and into Monday morning.
Motorists should exercise caution and plan a little extra time
for the Monday morning commute.


Apffel